createdAt,value
2022-12-25T00:01:34.248Z,11.40
2022-12-25T00:04:03.343Z,12.40
2022-12-25T00:06:32.163Z,12.10
2022-12-25T00:09:02.372Z,11.40
2022-12-25T00:11:38.972Z,11.48
2022-12-25T00:14:08.644Z,11.88
2022-12-25T00:16:37.205Z,10.10
2022-12-25T00:19:07.124Z,10.48
2022-12-25T00:21:36.371Z,11.60
2022-12-25T00:24:05.015Z,12.10
2022-12-25T00:26:34.974Z,12.23
2022-12-25T00:29:03.793Z,11.50
2022-12-25T00:31:32.119Z,11.85
2022-12-25T00:34:00.810Z,11.88
2022-12-25T00:36:29.733Z,15.40
2022-12-25T00:38:59.137Z,12.35
2022-12-25T00:41:41.259Z,12.57
2022-12-25T00:44:13.981Z,12.73
2022-12-25T00:46:43.043Z,11.83
2022-12-25T00:49:12.209Z,11.98
2022-12-25T00:51:40.429Z,11.68
2022-12-25T00:54:09.042Z,11.80
2022-12-25T00:56:37.688Z,12.32
2022-12-25T00:59:06.464Z,13.88
2022-12-25T01:01:36.257Z,12.00
2022-12-25T01:04:04.793Z,12.20
2022-12-25T01:06:32.976Z,13.02
2022-12-25T01:09:18.304Z,12.35
2022-12-25T01:11:46.457Z,12.23
2022-12-25T01:14:14.683Z,12.88
2022-12-25T01:16:44.950Z,12.00
2022-12-25T01:19:16.374Z,12.77
2022-12-25T01:21:44.615Z,12.98
2022-12-25T01:24:15.665Z,13.68
2022-12-25T01:26:43.795Z,13.20
2022-12-25T01:29:11.870Z,12.60
2022-12-25T01:31:40.117Z,12.45
2022-12-25T01:34:09.892Z,11.95
2022-12-25T01:36:37.900Z,12.98
2022-12-25T01:39:06.777Z,12.48
2022-12-25T01:41:35.461Z,13.75
2022-12-25T01:44:06.617Z,12.85
2022-12-25T01:46:36.231Z,13.13
2022-12-25T01:49:08.097Z,13.23
2022-12-25T01:51:42.879Z,13.85
2022-12-25T01:54:16.039Z,12.77
2022-12-25T01:56:46.934Z,14.23
2022-12-25T01:59:18.485Z,14.13
2022-12-25T02:01:47.553Z,14.73
2022-12-25T02:04:23.354Z,16.40
2022-12-25T02:06:53.219Z,13.60
2022-12-25T02:09:21.168Z,14.50
2022-12-25T02:11:58.226Z,13.65
2022-12-25T02:14:28.945Z,15.77
2022-12-25T02:17:07.180Z,14.90
2022-12-25T02:20:04.810Z,14.52
2022-12-25T02:22:48.604Z,15.05
2022-12-25T02:25:36.551Z,14.32
2022-12-25T02:28:15.260Z,14.07
2022-12-25T02:30:48.887Z,15.20
2022-12-25T02:33:39.307Z,14.75
2022-12-25T02:36:13.093Z,14.23
2022-12-25T02:41:35.723Z,13.93
2022-12-25T02:44:27.449Z,14.25
2022-12-25T02:47:13.618Z,16.20
2022-12-25T02:50:00.358Z,13.88
2022-12-25T02:52:48.739Z,15.32
2022-12-25T02:55:38.165Z,14.65
2022-12-25T02:58:28.414Z,14.13
2022-12-25T03:01:21.537Z,15.65
2022-12-25T03:04:09.740Z,14.25
2022-12-25T03:06:46.879Z,16.08
2022-12-25T03:09:36.011Z,15.73
2022-12-25T03:12:14.990Z,15.20
2022-12-25T03:15:00.825Z,15.02
2022-12-25T03:17:33.182Z,14.48
2022-12-25T03:20:19.688Z,14.25
2022-12-25T03:23:06.408Z,14.88
2022-12-25T03:25:52.170Z,14.02
2022-12-25T03:28:20.451Z,13.70
2022-12-25T03:31:15.781Z,14.27
2022-12-25T03:34:23.364Z,14.02
2022-12-25T03:37:15.937Z,13.10
2022-12-25T03:40:06.106Z,14.02
2022-12-25T03:43:02.068Z,14.95
2022-12-25T03:45:55.003Z,13.50
2022-12-25T03:48:43.582Z,13.55
2022-12-25T03:51:33.576Z,14.18
2022-12-25T03:54:24.569Z,14.15
2022-12-25T03:57:22.090Z,13.32
2022-12-25T04:00:07.346Z,13.35
2022-12-25T04:02:53.352Z,12.88
2022-12-25T04:05:50.277Z,13.20
2022-12-25T04:08:37.588Z,13.23
2022-12-25T04:11:23.210Z,12.73
2022-12-25T04:14:08.917Z,12.93
2022-12-25T04:16:54.377Z,11.85
2022-12-25T04:19:40.403Z,13.02
2022-12-25T04:22:25.561Z,11.27
2022-12-25T04:25:15.653Z,11.00
2022-12-25T04:28:01.416Z,10.43
2022-12-25T04:30:46.767Z,9.95
2022-12-25T04:33:32.063Z,10.70
2022-12-25T04:36:12.712Z,9.05
2022-12-25T04:38:41.929Z,9.20
2022-12-25T04:41:13.935Z,8.48
2022-12-25T04:43:42.789Z,7.68
2022-12-25T04:46:10.968Z,7.95
2022-12-25T04:48:39.187Z,8.10
2022-12-25T04:51:15.628Z,7.18
2022-12-25T04:53:44.601Z,7.32
2022-12-25T04:56:14.286Z,6.93
2022-12-25T04:58:42.823Z,7.30
2022-12-25T05:01:12.415Z,7.53
2022-12-25T05:03:41.511Z,7.07
2022-12-25T05:06:10.067Z,6.43
2022-12-25T05:08:38.743Z,6.75
2022-12-25T05:11:08.686Z,7.18
2022-12-25T05:13:38.740Z,6.07
2022-12-25T05:16:08.077Z,6.53
2022-12-25T05:18:36.581Z,6.63
2022-12-25T05:21:05.371Z,5.97
2022-12-25T05:23:36.330Z,5.82
2022-12-25T05:26:08.986Z,5.90
2022-12-25T05:28:38.597Z,6.20
2022-12-25T05:31:06.939Z,6.93
2022-12-25T05:33:35.256Z,5.40
2022-12-25T05:36:04.789Z,7.60
2022-12-25T05:38:33.003Z,5.47
2022-12-25T05:41:01.156Z,5.00
2022-12-25T05:43:30.032Z,5.30
2022-12-25T05:45:59.865Z,5.35
2022-12-25T05:48:27.860Z,5.32
2022-12-25T05:50:55.765Z,6.28
2022-12-25T05:53:23.896Z,5.47
2022-12-25T05:55:51.969Z,7.65
2022-12-25T05:58:19.893Z,6.82
2022-12-25T06:00:47.824Z,7.45
2022-12-25T06:03:17.496Z,7.18
2022-12-25T06:05:45.601Z,8.38
2022-12-25T06:08:13.743Z,7.82
2022-12-25T06:10:41.780Z,8.68
2022-12-25T06:13:09.900Z,8.38
2022-12-25T06:15:40.302Z,7.70
2022-12-25T06:18:08.697Z,8.10
2022-12-25T06:20:41.584Z,7.82
2022-12-25T06:23:09.896Z,8.97
2022-12-25T06:25:40.047Z,9.80
2022-12-25T06:28:08.866Z,8.30
2022-12-25T06:30:36.998Z,8.63
2022-12-25T06:33:07.864Z,7.57
2022-12-25T06:35:39.457Z,7.70
2022-12-25T06:38:07.641Z,7.80
2022-12-25T06:40:35.809Z,8.10
2022-12-25T06:43:03.749Z,10.27
2022-12-25T06:45:31.712Z,11.05
2022-12-25T06:47:59.765Z,9.63
2022-12-25T06:50:27.816Z,9.00
2022-12-25T06:52:57.316Z,9.40
2022-12-25T06:55:25.325Z,10.27
2022-12-25T06:57:56.339Z,9.60
2022-12-25T07:00:24.577Z,10.18
2022-12-25T07:02:52.790Z,9.70
2022-12-25T07:05:20.854Z,12.15
2022-12-25T07:07:48.851Z,14.68
2022-12-25T07:10:21.199Z,10.00
2022-12-25T07:12:49.250Z,8.05
2022-12-25T21:50:49.701Z,14.85
2022-12-25T23:51:48.425Z,19.02
2022-12-25T23:54:56.574Z,20.90
2022-12-25T23:57:42.013Z,20.25
